sensor_id;sensor_type;location;lat;lon;timestamp;P1;durP1;ratioP1;P2;durP2;ratioP2
24859;SDS011;12936;52.006;4.350;2023-09-18T00:00:33;34.28;;;24.83;;
24859;SDS011;12936;52.006;4.350;2023-09-18T00:03:03;33.95;;;24.50;;
24859;SDS011;12936;52.006;4.350;2023-09-18T00:05:34;30.30;;;24.85;;
24859;SDS011;12936;52.006;4.350;2023-09-18T00:08:05;31.83;;;24.42;;
24859;SDS011;12936;52.006;4.350;2023-09-18T00:10:45;35.53;;;24.90;;
24859;SDS011;12936;52.006;4.350;2023-09-18T00:13:16;33.33;;;23.80;;
24859;SDS011;12936;52.006;4.350;2023-09-18T00:15:50;32.03;;;24.42;;
24859;SDS011;12936;52.006;4.350;2023-09-18T00:18:22;29.25;;;23.80;;
24859;SDS011;12936;52.006;4.350;2023-09-18T00:20:53;28.30;;;23.88;;
24859;SDS011;12936;52.006;4.350;2023-09-18T00:23:22;33.42;;;23.10;;
24859;SDS011;12936;52.006;4.350;2023-09-18T00:25:50;31.85;;;24.40;;
24859;SDS011;12936;52.006;4.350;2023-09-18T00:29:03;30.42;;;23.67;;
24859;SDS011;12936;52.006;4.350;2023-09-18T00:31:32;30.25;;;24.13;;
24859;SDS011;12936;52.006;4.350;2023-09-18T00:34:21;31.08;;;22.48;;
24859;SDS011;12936;52.006;4.350;2023-09-18T00:37:12;28.95;;;22.98;;
24859;SDS011;12936;52.006;4.350;2023-09-18T00:39:44;27.67;;;21.60;;
24859;SDS011;12936;52.006;4.350;2023-09-18T00:42:15;29.02;;;22.52;;
24859;SDS011;12936;52.006;4.350;2023-09-18T00:44:45;28.27;;;22.02;;
24859;SDS011;12936;52.006;4.350;2023-09-18T00:47:42;29.63;;;22.23;;
24859;SDS011;12936;52.006;4.350;2023-09-18T00:50:11;26.23;;;21.35;;
24859;SDS011;12936;52.006;4.350;2023-09-18T00:52:54;26.20;;;21.67;;
24859;SDS011;12936;52.006;4.350;2023-09-18T00:55:42;26.95;;;21.02;;
24859;SDS011;12936;52.006;4.350;2023-09-18T00:58:11;26.98;;;21.23;;
24859;SDS011;12936;52.006;4.350;2023-09-18T01:00:42;25.25;;;20.88;;
24859;SDS011;12936;52.006;4.350;2023-09-18T01:03:19;28.17;;;22.42;;
24859;SDS011;12936;52.006;4.350;2023-09-18T01:06:14;24.90;;;20.73;;
24859;SDS011;12936;52.006;4.350;2023-09-18T01:08:47;26.98;;;21.77;;
24859;SDS011;12936;52.006;4.350;2023-09-18T01:11:26;26.50;;;22.42;;
24859;SDS011;12936;52.006;4.350;2023-09-18T01:14:25;27.35;;;21.48;;
24859;SDS011;12936;52.006;4.350;2023-09-18T01:17:01;26.08;;;20.63;;
24859;SDS011;12936;52.006;4.350;2023-09-18T01:19:38;24.38;;;20.25;;
24859;SDS011;12936;52.006;4.350;2023-09-18T01:22:11;33.05;;;21.10;;
24859;SDS011;12936;52.006;4.350;2023-09-18T01:24:44;26.95;;;20.73;;
24859;SDS011;12936;52.006;4.350;2023-09-18T01:27:15;27.48;;;21.33;;
24859;SDS011;12936;52.006;4.350;2023-09-18T01:29:48;25.80;;;21.08;;
24859;SDS011;12936;52.006;4.350;2023-09-18T01:32:17;26.85;;;20.58;;
24859;SDS011;12936;52.006;4.350;2023-09-18T01:35:06;26.15;;;20.02;;
24859;SDS011;12936;52.006;4.350;2023-09-18T01:37:38;27.60;;;20.65;;
24859;SDS011;12936;52.006;4.350;2023-09-18T01:40:11;26.38;;;21.23;;
24859;SDS011;12936;52.006;4.350;2023-09-18T01:42:39;23.45;;;19.55;;
24859;SDS011;12936;52.006;4.350;2023-09-18T01:45:12;25.80;;;21.58;;
24859;SDS011;12936;52.006;4.350;2023-09-18T01:47:42;23.83;;;19.77;;
24859;SDS011;12936;52.006;4.350;2023-09-18T01:50:12;22.67;;;19.90;;
24859;SDS011;12936;52.006;4.350;2023-09-18T01:52:41;24.48;;;19.70;;
24859;SDS011;12936;52.006;4.350;2023-09-18T01:55:15;24.23;;;19.25;;
24859;SDS011;12936;52.006;4.350;2023-09-18T01:57:44;24.17;;;20.13;;
24859;SDS011;12936;52.006;4.350;2023-09-18T02:00:37;23.63;;;17.70;;
24859;SDS011;12936;52.006;4.350;2023-09-18T02:03:07;22.25;;;17.73;;
24859;SDS011;12936;52.006;4.350;2023-09-18T02:05:59;21.15;;;17.27;;
24859;SDS011;12936;52.006;4.350;2023-09-18T02:08:32;21.42;;;16.55;;
24859;SDS011;12936;52.006;4.350;2023-09-18T02:11:05;21.13;;;16.67;;
24859;SDS011;12936;52.006;4.350;2023-09-18T02:13:33;21.02;;;16.30;;
24859;SDS011;12936;52.006;4.350;2023-09-18T02:16:02;23.45;;;16.05;;
24859;SDS011;12936;52.006;4.350;2023-09-18T02:18:33;17.67;;;15.30;;
24859;SDS011;12936;52.006;4.350;2023-09-18T02:21:03;20.33;;;16.40;;
24859;SDS011;12936;52.006;4.350;2023-09-18T02:23:34;18.77;;;14.93;;
24859;SDS011;12936;52.006;4.350;2023-09-18T02:26:05;18.58;;;15.23;;
24859;SDS011;12936;52.006;4.350;2023-09-18T02:28:39;17.83;;;14.02;;
24859;SDS011;12936;52.006;4.350;2023-09-18T02:31:09;19.73;;;14.60;;
24859;SDS011;12936;52.006;4.350;2023-09-18T02:33:38;18.27;;;14.43;;
24859;SDS011;12936;52.006;4.350;2023-09-18T02:36:34;19.17;;;13.75;;
24859;SDS011;12936;52.006;4.350;2023-09-18T02:39:04;17.02;;;13.05;;
24859;SDS011;12936;52.006;4.350;2023-09-18T02:41:57;16.77;;;13.45;;
24859;SDS011;12936;52.006;4.350;2023-09-18T02:44:45;20.60;;;12.95;;
24859;SDS011;12936;52.006;4.350;2023-09-18T02:47:14;19.60;;;14.15;;
24859;SDS011;12936;52.006;4.350;2023-09-18T02:49:42;16.73;;;13.45;;
24859;SDS011;12936;52.006;4.350;2023-09-18T02:52:12;16.27;;;12.75;;
24859;SDS011;12936;52.006;4.350;2023-09-18T02:54:44;16.80;;;12.85;;
24859;SDS011;12936;52.006;4.350;2023-09-18T02:57:16;17.55;;;12.95;;
24859;SDS011;12936;52.006;4.350;2023-09-18T02:59:45;17.10;;;12.60;;
24859;SDS011;12936;52.006;4.350;2023-09-18T03:02:15;15.85;;;13.48;;
24859;SDS011;12936;52.006;4.350;2023-09-18T03:04:45;14.52;;;12.65;;
24859;SDS011;12936;52.006;4.350;2023-09-18T03:07:13;14.48;;;12.85;;
24859;SDS011;12936;52.006;4.350;2023-09-18T03:09:44;19.25;;;13.00;;
24859;SDS011;12936;52.006;4.350;2023-09-18T03:12:35;18.95;;;12.75;;
24859;SDS011;12936;52.006;4.350;2023-09-18T03:15:06;15.73;;;13.70;;
24859;SDS011;12936;52.006;4.350;2023-09-18T03:17:38;15.60;;;12.90;;
24859;SDS011;12936;52.006;4.350;2023-09-18T03:20:11;13.93;;;12.27;;
24859;SDS011;12936;52.006;4.350;2023-09-18T03:22:40;16.42;;;12.38;;
24859;SDS011;12936;52.006;4.350;2023-09-18T03:25:08;18.88;;;13.60;;
24859;SDS011;12936;52.006;4.350;2023-09-18T03:28:18;18.77;;;13.65;;
24859;SDS011;12936;52.006;4.350;2023-09-18T03:30:46;19.15;;;12.82;;
24859;SDS011;12936;52.006;4.350;2023-09-18T03:33:18;19.67;;;13.32;;
24859;SDS011;12936;52.006;4.350;2023-09-18T03:35:46;20.38;;;13.32;;
24859;SDS011;12936;52.006;4.350;2023-09-18T03:38:16;14.63;;;12.73;;
24859;SDS011;12936;52.006;4.350;2023-09-18T03:40:44;16.60;;;11.80;;
24859;SDS011;12936;52.006;4.350;2023-09-18T03:43:13;14.90;;;11.02;;
24859;SDS011;12936;52.006;4.350;2023-09-18T03:45:42;17.58;;;11.15;;
24859;SDS011;12936;52.006;4.350;2023-09-18T03:48:11;15.70;;;11.27;;
24859;SDS011;12936;52.006;4.350;2023-09-18T03:50:39;17.63;;;10.95;;
24859;SDS011;12936;52.006;4.350;2023-09-18T03:53:09;16.15;;;12.82;;
24859;SDS011;12936;52.006;4.350;2023-09-18T03:55:37;18.00;;;12.43;;
24859;SDS011;12936;52.006;4.350;2023-09-18T03:58:05;13.63;;;10.27;;
24859;SDS011;12936;52.006;4.350;2023-09-18T04:00:37;16.58;;;11.02;;
24859;SDS011;12936;52.006;4.350;2023-09-18T04:03:06;15.75;;;10.57;;
24859;SDS011;12936;52.006;4.350;2023-09-18T04:05:35;18.35;;;10.00;;
24859;SDS011;12936;52.006;4.350;2023-09-18T04:08:03;15.98;;;9.77;;
24859;SDS011;12936;52.006;4.350;2023-09-18T04:10:32;13.10;;;10.25;;
24859;SDS011;12936;52.006;4.350;2023-09-18T04:13:01;14.65;;;10.40;;
24859;SDS011;12936;52.006;4.350;2023-09-18T04:15:29;13.90;;;10.52;;
24859;SDS011;12936;52.006;4.350;2023-09-18T04:17:57;13.68;;;10.00;;
24859;SDS011;12936;52.006;4.350;2023-09-18T04:20:27;13.32;;;10.35;;
24859;SDS011;12936;52.006;4.350;2023-09-18T04:25:46;16.30;;;9.70;;
24859;SDS011;12936;52.006;4.350;2023-09-18T04:28:14;17.30;;;9.65;;
24859;SDS011;12936;52.006;4.350;2023-09-18T04:30:43;11.93;;;9.48;;
24859;SDS011;12936;52.006;4.350;2023-09-18T04:33:13;17.27;;;10.30;;
24859;SDS011;12936;52.006;4.350;2023-09-18T04:35:43;12.90;;;9.50;;
24859;SDS011;12936;52.006;4.350;2023-09-18T04:38:11;14.05;;;9.82;;
24859;SDS011;12936;52.006;4.350;2023-09-18T04:40:41;13.93;;;9.82;;
24859;SDS011;12936;52.006;4.350;2023-09-18T04:43:10;12.45;;;10.20;;
24859;SDS011;12936;52.006;4.350;2023-09-18T04:45:38;14.40;;;10.88;;
24859;SDS011;12936;52.006;4.350;2023-09-18T04:48:06;12.18;;;10.45;;
24859;SDS011;12936;52.006;4.350;2023-09-18T04:50:35;17.08;;;10.55;;
24859;SDS011;12936;52.006;4.350;2023-09-18T04:53:04;13.20;;;10.65;;
24859;SDS011;12936;52.006;4.350;2023-09-18T04:55:32;14.43;;;11.13;;
24859;SDS011;12936;52.006;4.350;2023-09-18T04:58:00;14.68;;;11.35;;
24859;SDS011;12936;52.006;4.350;2023-09-18T05:00:30;15.48;;;11.20;;
24859;SDS011;12936;52.006;4.350;2023-09-18T05:02:59;17.40;;;10.80;;
24859;SDS011;12936;52.006;4.350;2023-09-18T05:05:30;13.13;;;11.32;;
24859;SDS011;12936;52.006;4.350;2023-09-18T05:07:58;18.75;;;11.18;;
24859;SDS011;12936;52.006;4.350;2023-09-18T05:10:27;15.07;;;11.23;;
24859;SDS011;12936;52.006;4.350;2023-09-18T05:12:56;17.38;;;11.10;;
24859;SDS011;12936;52.006;4.350;2023-09-18T05:15:26;14.75;;;11.32;;
24859;SDS011;12936;52.006;4.350;2023-09-18T05:17:56;17.67;;;11.50;;
24859;SDS011;12936;52.006;4.350;2023-09-18T05:20:27;12.18;;;10.38;;
24859;SDS011;12936;52.006;4.350;2023-09-18T05:22:57;13.13;;;10.60;;
24859;SDS011;12936;52.006;4.350;2023-09-18T05:25:29;16.08;;;11.02;;
24859;SDS011;12936;52.006;4.350;2023-09-18T05:27:59;16.77;;;11.65;;
24859;SDS011;12936;52.006;4.350;2023-09-18T05:30:32;13.65;;;10.68;;
24859;SDS011;12936;52.006;4.350;2023-09-18T05:33:02;14.32;;;10.27;;
24859;SDS011;12936;52.006;4.350;2023-09-18T05:35:32;15.65;;;10.95;;
24859;SDS011;12936;52.006;4.350;2023-09-18T05:38:00;17.70;;;12.00;;
24859;SDS011;12936;52.006;4.350;2023-09-18T05:40:30;23.23;;;11.70;;
24859;SDS011;12936;52.006;4.350;2023-09-18T05:42:58;12.52;;;11.23;;
24859;SDS011;12936;52.006;4.350;2023-09-18T05:45:26;14.82;;;10.70;;
24859;SDS011;12936;52.006;4.350;2023-09-18T05:47:55;13.48;;;11.15;;
24859;SDS011;12936;52.006;4.350;2023-09-18T05:50:28;16.23;;;11.77;;
24859;SDS011;12936;52.006;4.350;2023-09-18T05:52:58;17.23;;;12.45;;
24859;SDS011;12936;52.006;4.350;2023-09-18T05:55:26;17.88;;;12.93;;
24859;SDS011;12936;52.006;4.350;2023-09-18T05:57:56;15.70;;;12.80;;
24859;SDS011;12936;52.006;4.350;2023-09-18T06:00:24;18.15;;;12.82;;
24859;SDS011;12936;52.006;4.350;2023-09-18T06:02:53;17.20;;;13.43;;
24859;SDS011;12936;52.006;4.350;2023-09-18T06:05:21;15.98;;;13.15;;
24859;SDS011;12936;52.006;4.350;2023-09-18T06:07:49;15.32;;;13.65;;
24859;SDS011;12936;52.006;4.350;2023-09-18T06:10:18;18.17;;;14.40;;
24859;SDS011;12936;52.006;4.350;2023-09-18T06:12:46;17.85;;;14.93;;
24859;SDS011;12936;52.006;4.350;2023-09-18T06:15:16;17.52;;;15.07;;
24859;SDS011;12936;52.006;4.350;2023-09-18T06:17:45;18.58;;;15.32;;
24859;SDS011;12936;52.006;4.350;2023-09-18T06:20:13;16.83;;;14.15;;
24859;SDS011;12936;52.006;4.350;2023-09-18T06:22:43;15.82;;;13.55;;
24859;SDS011;12936;52.006;4.350;2023-09-18T06:25:11;15.57;;;12.98;;
24859;SDS011;12936;52.006;4.350;2023-09-18T06:28:03;18.50;;;12.60;;
24859;SDS011;12936;52.006;4.350;2023-09-18T06:30:32;15.30;;;10.55;;
24859;SDS011;12936;52.006;4.350;2023-09-18T06:33:03;15.65;;;11.10;;
24859;SDS011;12936;52.006;4.350;2023-09-18T06:35:31;13.48;;;9.68;;
24859;SDS011;12936;52.006;4.350;2023-09-18T06:38:00;12.70;;;8.90;;
24859;SDS011;12936;52.006;4.350;2023-09-18T06:40:28;11.90;;;8.70;;
24859;SDS011;12936;52.006;4.350;2023-09-18T06:43:00;11.80;;;8.48;;
24859;SDS011;12936;52.006;4.350;2023-09-18T06:45:28;10.85;;;8.18;;
24859;SDS011;12936;52.006;4.350;2023-09-18T06:47:57;11.35;;;7.40;;
24859;SDS011;12936;52.006;4.350;2023-09-18T06:50:26;10.13;;;7.20;;
24859;SDS011;12936;52.006;4.350;2023-09-18T06:52:55;11.40;;;6.70;;
24859;SDS011;12936;52.006;4.350;2023-09-18T06:55:23;15.38;;;6.75;;
24859;SDS011;12936;52.006;4.350;2023-09-18T06:57:51;9.93;;;5.50;;
24859;SDS011;12936;52.006;4.350;2023-09-18T07:00:19;10.63;;;6.45;;
24859;SDS011;12936;52.006;4.350;2023-09-18T07:02:48;9.80;;;6.15;;
24859;SDS011;12936;52.006;4.350;2023-09-18T07:05:18;8.65;;;5.40;;
24859;SDS011;12936;52.006;4.350;2023-09-18T07:07:46;7.13;;;5.15;;
24859;SDS011;12936;52.006;4.350;2023-09-18T07:10:14;7.30;;;5.15;;
24859;SDS011;12936;52.006;4.350;2023-09-18T07:12:43;8.63;;;5.30;;
24859;SDS011;12936;52.006;4.350;2023-09-18T07:15:11;8.13;;;4.50;;
24859;SDS011;12936;52.006;4.350;2023-09-18T07:17:39;7.68;;;4.72;;
24859;SDS011;12936;52.006;4.350;2023-09-18T07:20:07;9.05;;;4.57;;
24859;SDS011;12936;52.006;4.350;2023-09-18T07:22:45;6.20;;;4.55;;
24859;SDS011;12936;52.006;4.350;2023-09-18T07:25:14;8.90;;;4.13;;
24859;SDS011;12936;52.006;4.350;2023-09-18T07:27:42;8.57;;;4.10;;
24859;SDS011;12936;52.006;4.350;2023-09-18T07:30:11;8.52;;;3.72;;
24859;SDS011;12936;52.006;4.350;2023-09-18T07:32:42;6.20;;;3.47;;
24859;SDS011;12936;52.006;4.350;2023-09-18T07:35:11;5.60;;;3.80;;
24859;SDS011;12936;52.006;4.350;2023-09-18T07:37:40;5.43;;;3.78;;
24859;SDS011;12936;52.006;4.350;2023-09-18T07:40:12;7.28;;;3.85;;
24859;SDS011;12936;52.006;4.350;2023-09-18T07:42:40;7.47;;;3.78;;
24859;SDS011;12936;52.006;4.350;2023-09-18T07:45:10;5.53;;;3.83;;
24859;SDS011;12936;52.006;4.350;2023-09-18T07:47:39;6.43;;;4.18;;
24859;SDS011;12936;52.006;4.350;2023-09-18T07:50:07;7.82;;;3.75;;
24859;SDS011;12936;52.006;4.350;2023-09-18T07:52:36;6.38;;;3.00;;
24859;SDS011;12936;52.006;4.350;2023-09-18T07:55:04;8.23;;;3.35;;
24859;SDS011;12936;52.006;4.350;2023-09-18T07:57:34;4.25;;;3.15;;
24859;SDS011;12936;52.006;4.350;2023-09-18T08:00:04;7.30;;;3.30;;
24859;SDS011;12936;52.006;4.350;2023-09-18T08:02:39;6.55;;;3.60;;
24859;SDS011;12936;52.006;4.350;2023-09-18T08:05:07;4.95;;;2.75;;
24859;SDS011;12936;52.006;4.350;2023-09-18T08:07:36;4.90;;;2.80;;
24859;SDS011;12936;52.006;4.350;2023-09-18T08:10:04;6.55;;;2.70;;
24859;SDS011;12936;52.006;4.350;2023-09-18T08:12:36;5.40;;;2.90;;
24859;SDS011;12936;52.006;4.350;2023-09-18T08:15:07;3.72;;;2.40;;
24859;SDS011;12936;52.006;4.350;2023-09-18T08:17:36;5.00;;;2.35;;
24859;SDS011;12936;52.006;4.350;2023-09-18T08:20:05;4.72;;;3.00;;
24859;SDS011;12936;52.006;4.350;2023-09-18T08:22:39;4.03;;;2.90;;
24859;SDS011;12936;52.006;4.350;2023-09-18T08:25:07;6.97;;;3.25;;
24859;SDS011;12936;52.006;4.350;2023-09-18T08:27:38;6.22;;;2.65;;
24859;SDS011;12936;52.006;4.350;2023-09-18T08:30:09;8.00;;;2.90;;
24859;SDS011;12936;52.006;4.350;2023-09-18T08:32:38;3.92;;;2.90;;
24859;SDS011;12936;52.006;4.350;2023-09-18T08:35:06;7.40;;;2.95;;
24859;SDS011;12936;52.006;4.350;2023-09-18T08:37:35;5.75;;;3.00;;
24859;SDS011;12936;52.006;4.350;2023-09-18T08:40:04;5.45;;;3.00;;
24859;SDS011;12936;52.006;4.350;2023-09-18T08:42:38;5.00;;;3.13;;
24859;SDS011;12936;52.006;4.350;2023-09-18T08:45:08;7.93;;;2.95;;
24859;SDS011;12936;52.006;4.350;2023-09-18T08:47:38;4.53;;;2.90;;
24859;SDS011;12936;52.006;4.350;2023-09-18T08:50:08;5.15;;;3.10;;
24859;SDS011;12936;52.006;4.350;2023-09-18T08:52:37;5.40;;;2.72;;
24859;SDS011;12936;52.006;4.350;2023-09-18T08:55:06;8.35;;;2.92;;
24859;SDS011;12936;52.006;4.350;2023-09-18T08:57:36;6.97;;;3.40;;
24859;SDS011;12936;52.006;4.350;2023-09-18T09:00:08;8.68;;;3.17;;
24859;SDS011;12936;52.006;4.350;2023-09-18T09:02:43;8.13;;;3.47;;
24859;SDS011;12936;52.006;4.350;2023-09-18T09:05:11;6.45;;;3.45;;
24859;SDS011;12936;52.006;4.350;2023-09-18T09:07:40;5.10;;;3.08;;
24859;SDS011;12936;52.006;4.350;2023-09-18T09:10:08;5.88;;;3.10;;
24859;SDS011;12936;52.006;4.350;2023-09-18T09:12:47;5.85;;;3.20;;
24859;SDS011;12936;52.006;4.350;2023-09-18T09:15:16;4.30;;;3.00;;
24859;SDS011;12936;52.006;4.350;2023-09-18T09:17:45;7.82;;;2.85;;
24859;SDS011;12936;52.006;4.350;2023-09-18T09:20:14;4.22;;;3.15;;
24859;SDS011;12936;52.006;4.350;2023-09-18T09:22:45;5.13;;;2.90;;
24859;SDS011;12936;52.006;4.350;2023-09-18T09:25:23;4.38;;;2.40;;
24859;SDS011;12936;52.006;4.350;2023-09-18T09:27:53;5.45;;;3.35;;
24859;SDS011;12936;52.006;4.350;2023-09-18T09:30:24;4.47;;;3.00;;
24859;SDS011;12936;52.006;4.350;2023-09-18T09:32:54;7.90;;;3.63;;
24859;SDS011;12936;52.006;4.350;2023-09-18T09:35:25;4.57;;;2.75;;
24859;SDS011;12936;52.006;4.350;2023-09-18T09:37:56;6.47;;;3.13;;
24859;SDS011;12936;52.006;4.350;2023-09-18T09:40:25;6.15;;;3.30;;
24859;SDS011;12936;52.006;4.350;2023-09-18T09:42:55;7.07;;;3.25;;
24859;SDS011;12936;52.006;4.350;2023-09-18T09:45:29;6.38;;;3.85;;
24859;SDS011;12936;52.006;4.350;2023-09-18T09:48:02;9.30;;;3.50;;
24859;SDS011;12936;52.006;4.350;2023-09-18T09:50:33;4.05;;;3.00;;
24859;SDS011;12936;52.006;4.350;2023-09-18T09:53:12;6.45;;;3.28;;
24859;SDS011;12936;52.006;4.350;2023-09-18T09:55:41;5.20;;;3.33;;
24859;SDS011;12936;52.006;4.350;2023-09-18T09:58:09;5.95;;;3.10;;
24859;SDS011;12936;52.006;4.350;2023-09-18T10:00:43;5.57;;;3.25;;
24859;SDS011;12936;52.006;4.350;2023-09-18T10:03:16;7.93;;;3.30;;
24859;SDS011;12936;52.006;4.350;2023-09-18T10:05:45;6.55;;;3.47;;
24859;SDS011;12936;52.006;4.350;2023-09-18T10:08:16;5.68;;;3.33;;
24859;SDS011;12936;52.006;4.350;2023-09-18T10:10:47;7.57;;;3.78;;
24859;SDS011;12936;52.006;4.350;2023-09-18T10:13:16;5.68;;;3.65;;
24859;SDS011;12936;52.006;4.350;2023-09-18T10:15:49;4.88;;;3.70;;
24859;SDS011;12936;52.006;4.350;2023-09-18T10:18:21;6.10;;;3.90;;
24859;SDS011;12936;52.006;4.350;2023-09-18T10:21:00;4.35;;;3.55;;
24859;SDS011;12936;52.006;4.350;2023-09-18T10:23:38;8.40;;;3.33;;
24859;SDS011;12936;52.006;4.350;2023-09-18T10:26:22;4.50;;;3.10;;
24859;SDS011;12936;52.006;4.350;2023-09-18T10:28:56;5.60;;;3.20;;
24859;SDS011;12936;52.006;4.350;2023-09-18T10:31:27;5.18;;;3.58;;
24859;SDS011;12936;52.006;4.350;2023-09-18T10:33:56;3.58;;;2.85;;
24859;SDS011;12936;52.006;4.350;2023-09-18T10:36:26;4.28;;;2.78;;
24859;SDS011;12936;52.006;4.350;2023-09-18T10:38:59;6.93;;;3.08;;
24859;SDS011;12936;52.006;4.350;2023-09-18T10:41:34;3.38;;;2.70;;
24859;SDS011;12936;52.006;4.350;2023-09-18T10:44:04;4.82;;;2.97;;
24859;SDS011;12936;52.006;4.350;2023-09-18T10:46:34;5.90;;;2.88;;
24859;SDS011;12936;52.006;4.350;2023-09-18T10:49:03;4.60;;;2.70;;
24859;SDS011;12936;52.006;4.350;2023-09-18T10:51:31;4.82;;;2.90;;
24859;SDS011;12936;52.006;4.350;2023-09-18T10:54:00;5.75;;;2.50;;
24859;SDS011;12936;52.006;4.350;2023-09-18T10:56:30;5.97;;;2.72;;
24859;SDS011;12936;52.006;4.350;2023-09-18T10:58:59;5.50;;;2.30;;
24859;SDS011;12936;52.006;4.350;2023-09-18T11:01:29;6.60;;;2.08;;
24859;SDS011;12936;52.006;4.350;2023-09-18T11:03:59;5.95;;;2.20;;
24859;SDS011;12936;52.006;4.350;2023-09-18T11:06:30;6.82;;;2.58;;
24859;SDS011;12936;52.006;4.350;2023-09-18T11:09:40;5.50;;;2.75;;
24859;SDS011;12936;52.006;4.350;2023-09-18T11:12:11;6.95;;;1.90;;
24859;SDS011;12936;52.006;4.350;2023-09-18T11:14:42;5.00;;;1.90;;
24859;SDS011;12936;52.006;4.350;2023-09-18T11:20:04;5.07;;;2.35;;
24859;SDS011;12936;52.006;4.350;2023-09-18T11:22:39;4.25;;;2.13;;
24859;SDS011;12936;52.006;4.350;2023-09-18T11:25:28;5.00;;;2.80;;
24859;SDS011;12936;52.006;4.350;2023-09-18T11:27:57;4.80;;;2.63;;
24859;SDS011;12936;52.006;4.350;2023-09-18T11:30:25;6.28;;;2.70;;
24859;SDS011;12936;52.006;4.350;2023-09-18T11:32:53;6.65;;;2.80;;
24859;SDS011;12936;52.006;4.350;2023-09-18T11:35:24;4.05;;;2.33;;
24859;SDS011;12936;52.006;4.350;2023-09-18T11:38:02;4.82;;;2.80;;
24859;SDS011;12936;52.006;4.350;2023-09-18T11:40:33;4.82;;;2.50;;
24859;SDS011;12936;52.006;4.350;2023-09-18T11:43:21;5.10;;;2.40;;
24859;SDS011;12936;52.006;4.350;2023-09-18T11:45:57;4.60;;;2.85;;
24859;SDS011;12936;52.006;4.350;2023-09-18T11:48:27;4.85;;;2.60;;
24859;SDS011;12936;52.006;4.350;2023-09-18T11:50:58;7.95;;;3.30;;
24859;SDS011;12936;52.006;4.350;2023-09-18T11:53:29;5.78;;;2.78;;
24859;SDS011;12936;52.006;4.350;2023-09-18T11:56:04;3.58;;;2.40;;
24859;SDS011;12936;52.006;4.350;2023-09-18T11:58:44;4.78;;;2.53;;
24859;SDS011;12936;52.006;4.350;2023-09-18T12:01:14;6.90;;;3.05;;
24859;SDS011;12936;52.006;4.350;2023-09-18T12:03:42;4.13;;;2.40;;
24859;SDS011;12936;52.006;4.350;2023-09-18T12:06:12;5.85;;;2.78;;
24859;SDS011;12936;52.006;4.350;2023-09-18T12:08:42;4.43;;;2.90;;
24859;SDS011;12936;52.006;4.350;2023-09-18T12:11:10;5.82;;;3.38;;
24859;SDS011;12936;52.006;4.350;2023-09-18T12:13:45;3.75;;;3.20;;
24859;SDS011;12936;52.006;4.350;2023-09-18T12:16:16;4.13;;;3.00;;
24859;SDS011;12936;52.006;4.350;2023-09-18T12:18:45;8.55;;;3.90;;
24859;SDS011;12936;52.006;4.350;2023-09-18T12:21:15;9.75;;;3.90;;
24859;SDS011;12936;52.006;4.350;2023-09-18T12:23:44;7.47;;;3.60;;
24859;SDS011;12936;52.006;4.350;2023-09-18T12:26:14;5.30;;;3.80;;
24859;SDS011;12936;52.006;4.350;2023-09-18T12:28:44;6.43;;;3.42;;
24859;SDS011;12936;52.006;4.350;2023-09-18T12:31:12;4.47;;;3.05;;
24859;SDS011;12936;52.006;4.350;2023-09-18T12:33:42;4.88;;;3.63;;
24859;SDS011;12936;52.006;4.350;2023-09-18T12:36:12;4.10;;;3.22;;
24859;SDS011;12936;52.006;4.350;2023-09-18T12:38:54;7.57;;;3.97;;
24859;SDS011;12936;52.006;4.350;2023-09-18T12:41:23;10.95;;;3.25;;
24859;SDS011;12936;52.006;4.350;2023-09-18T12:43:58;4.80;;;3.25;;
24859;SDS011;12936;52.006;4.350;2023-09-18T12:46:26;6.90;;;2.88;;
24859;SDS011;12936;52.006;4.350;2023-09-18T12:48:57;5.57;;;2.90;;
24859;SDS011;12936;52.006;4.350;2023-09-18T12:51:31;5.00;;;2.88;;
24859;SDS011;12936;52.006;4.350;2023-09-18T12:53:59;9.15;;;2.70;;
24859;SDS011;12936;52.006;4.350;2023-09-18T12:56:33;7.63;;;2.75;;
24859;SDS011;12936;52.006;4.350;2023-09-18T12:59:08;4.40;;;2.97;;
24859;SDS011;12936;52.006;4.350;2023-09-18T13:01:45;9.20;;;3.17;;
24859;SDS011;12936;52.006;4.350;2023-09-18T13:04:15;4.03;;;2.90;;
24859;SDS011;12936;52.006;4.350;2023-09-18T13:06:45;7.43;;;3.13;;
24859;SDS011;12936;52.006;4.350;2023-09-18T13:09:16;4.55;;;2.60;;
24859;SDS011;12936;52.006;4.350;2023-09-18T13:11:55;3.38;;;2.30;;
24859;SDS011;12936;52.006;4.350;2023-09-18T13:14:24;7.10;;;2.88;;
24859;SDS011;12936;52.006;4.350;2023-09-18T13:16:53;5.28;;;2.53;;
24859;SDS011;12936;52.006;4.350;2023-09-18T13:19:30;4.93;;;2.92;;
24859;SDS011;12936;52.006;4.350;2023-09-18T13:21:59;6.30;;;2.20;;
24859;SDS011;12936;52.006;4.350;2023-09-18T13:24:28;4.22;;;2.38;;
24859;SDS011;12936;52.006;4.350;2023-09-18T13:26:57;5.07;;;2.38;;
24859;SDS011;12936;52.006;4.350;2023-09-18T13:29:27;5.35;;;2.38;;
24859;SDS011;12936;52.006;4.350;2023-09-18T13:31:56;5.93;;;2.85;;
24859;SDS011;12936;52.006;4.350;2023-09-18T13:34:26;7.80;;;2.55;;
24859;SDS011;12936;52.006;4.350;2023-09-18T13:37:00;6.18;;;2.88;;
24859;SDS011;12936;52.006;4.350;2023-09-18T13:39:28;4.07;;;2.53;;
24859;SDS011;12936;52.006;4.350;2023-09-18T13:41:56;7.90;;;2.60;;
24859;SDS011;12936;52.006;4.350;2023-09-18T13:44:24;7.35;;;2.40;;
24859;SDS011;12936;52.006;4.350;2023-09-18T13:46:52;5.55;;;2.40;;
24859;SDS011;12936;52.006;4.350;2023-09-18T13:49:20;5.68;;;1.90;;
24859;SDS011;12936;52.006;4.350;2023-09-18T13:51:52;5.20;;;2.53;;
24859;SDS011;12936;52.006;4.350;2023-09-18T13:54:24;3.13;;;2.55;;
24859;SDS011;12936;52.006;4.350;2023-09-18T13:56:52;5.43;;;2.60;;
24859;SDS011;12936;52.006;4.350;2023-09-18T13:59:23;10.27;;;2.45;;
24859;SDS011;12936;52.006;4.350;2023-09-18T14:01:52;5.78;;;2.25;;
24859;SDS011;12936;52.006;4.350;2023-09-18T14:04:21;5.57;;;2.20;;
24859;SDS011;12936;52.006;4.350;2023-09-18T14:06:49;4.53;;;2.75;;
24859;SDS011;12936;52.006;4.350;2023-09-18T14:09:17;11.63;;;3.13;;
24859;SDS011;12936;52.006;4.350;2023-09-18T14:11:47;10.27;;;3.75;;
24859;SDS011;12936;52.006;4.350;2023-09-18T14:14:15;12.52;;;3.28;;
24859;SDS011;12936;52.006;4.350;2023-09-18T14:16:43;11.82;;;3.38;;
24859;SDS011;12936;52.006;4.350;2023-09-18T14:19:12;3.15;;;1.58;;
24859;SDS011;12936;52.006;4.350;2023-09-18T14:21:40;4.57;;;1.58;;
24859;SDS011;12936;52.006;4.350;2023-09-18T14:24:08;3.58;;;1.30;;
24859;SDS011;12936;52.006;4.350;2023-09-18T14:26:36;4.05;;;1.35;;
24859;SDS011;12936;52.006;4.350;2023-09-18T14:29:08;4.47;;;1.20;;
24859;SDS011;12936;52.006;4.350;2023-09-18T14:31:37;5.00;;;1.50;;
24859;SDS011;12936;52.006;4.350;2023-09-18T14:34:05;5.05;;;1.30;;
24859;SDS011;12936;52.006;4.350;2023-09-18T14:36:34;5.35;;;1.50;;
24859;SDS011;12936;52.006;4.350;2023-09-18T14:39:04;8.52;;;1.60;;
24859;SDS011;12936;52.006;4.350;2023-09-18T14:41:36;5.47;;;1.50;;
24859;SDS011;12936;52.006;4.350;2023-09-18T14:44:05;4.45;;;1.60;;
24859;SDS011;12936;52.006;4.350;2023-09-18T14:46:37;7.80;;;2.08;;
24859;SDS011;12936;52.006;4.350;2023-09-18T14:49:06;6.78;;;1.85;;
24859;SDS011;12936;52.006;4.350;2023-09-18T14:51:34;6.05;;;1.92;;
24859;SDS011;12936;52.006;4.350;2023-09-18T14:54:03;8.13;;;2.53;;
24859;SDS011;12936;52.006;4.350;2023-09-18T14:56:32;8.07;;;2.15;;
24859;SDS011;12936;52.006;4.350;2023-09-18T14:59:01;6.50;;;1.88;;
24859;SDS011;12936;52.006;4.350;2023-09-18T15:02:08;7.75;;;1.80;;
24859;SDS011;12936;52.006;4.350;2023-09-18T15:04:36;10.82;;;2.13;;
24859;SDS011;12936;52.006;4.350;2023-09-18T15:07:04;5.47;;;1.55;;